Yellowstone National Park, WY (82190)

5:07 PM MDT on March 30, 2015 (GMT -0600)
Yellowstone | | Change Station
CLOSE
Current Station
Airport
Location: Yellowstone,
Elevation: 7835 ft
Nearby Weather Stations

Elev 7835 ft 44.54 °N, 110.42 °W | Updated 11 minutes ago

Clear
Clear
50 °F
Feels Like 50 °F
N
10
Wind Variable Wind from West
Gusts 20 mph

Today
High -- | Low -- °F
--% Chance of Precip.
Yesterday
High -- | Low -- °F
Precip. -- in
7:06 AM 7:46 PM
Waxing Gibbous, 82% visible
Pressure 30.19 in
Visibility -9999.0 miles
Clouds
Dew Point 17 °F
Humidity 27%
Rainfall 0.00 in
Snow Depth Not available.
UV Not available.
Pollen 8.60 out of 12
Air Quality Not available.
Flu Activity Not available.
METAR KP60 302256Z AUTO 28009G17KT 10/M08 A3023 RMK AO1 SLP223 T01001083 $

More Conditions Fewer Conditions

Pressure 30.19 in
Visibility -9999.0 miles
Clouds
Dew Point 17 °F
Humidity 27%
Rainfall 0.00 in
Snow Depth Not available.
UV Not available.
Pollen 8.60 out of 12
Air Quality Not available.
Flu Activity Not available.
METAR KP60 302256Z AUTO 28009G17KT 10/M08 A3023 RMK AO1 SLP223 T01001083 $

More Conditions Fewer Conditions

10-Day Weather Forecast

Almanac

Astronomy

Mar. 30, 2015 Rise Set
Actual Time
Civil Twilight
Nautical Twilight
Astronomical Twilight
Moon
Length of Visible Light
Length of Day
Tomorrow will be .
, % of the Moon is Illuminated

Today's Extremes

State Highs State Lows

Community

WunderPhotos

Upload Photos

1,809,617 photos uploaded!

WunderBlogs® & News

Nearby

Air Quality

  Air Quality AQ Index Pollutant
Not available.

Snow Depth

Station Depth Elevation

Earthquake Activity

City Distance Mag. Time & Date
Minimum magnitude displayed is 2.5.

Coastal Water Temperatures

Place Temperature

Stations

Nearby Weather Stations

Station Location Temp. Windchill Dew Point Humidity Wind Precip. Elev Updated Type